createdAt,value
2018-02-14T00:02:08.440Z,54.00
2018-02-14T00:04:36.689Z,53.10
2018-02-14T00:07:04.956Z,53.10
2018-02-14T00:09:33.200Z,53.30
2018-02-14T00:12:01.449Z,52.50
2018-02-14T00:14:30.109Z,53.80
2018-02-14T00:16:58.419Z,55.40
2018-02-14T00:19:26.661Z,54.90
2018-02-14T00:21:54.955Z,54.20
2018-02-14T00:24:24.387Z,53.90
2018-02-14T00:26:52.617Z,53.10
2018-02-14T00:29:20.889Z,53.90
2018-02-14T00:31:49.335Z,53.80
2018-02-14T00:34:17.706Z,53.30
2018-02-14T00:36:47.358Z,54.30
2018-02-14T00:39:17.830Z,54.80
2018-02-14T00:41:46.213Z,53.30
2018-02-14T00:44:14.533Z,52.80
2018-02-14T00:46:42.797Z,52.90
2018-02-14T00:49:12.268Z,53.10
2018-02-14T00:51:40.953Z,53.50
2018-02-14T00:54:13.333Z,53.80
2018-02-14T00:56:42.497Z,53.40
2018-02-14T00:59:10.758Z,53.20
2018-02-14T01:01:39.078Z,53.00
2018-02-14T01:04:07.366Z,53.00
2018-02-14T01:06:36.418Z,53.70
2018-02-14T01:09:04.678Z,53.80
2018-02-14T01:11:32.953Z,53.90
2018-02-14T01:14:01.205Z,53.20
2018-02-14T01:16:29.661Z,54.40
2018-02-14T01:18:58.014Z,55.40
2018-02-14T01:21:26.269Z,55.10
2018-02-14T01:23:54.525Z,55.00
2018-02-14T01:26:24.178Z,54.30
2018-02-14T01:28:52.440Z,54.20
2018-02-14T01:31:20.686Z,54.20
2018-02-14T01:33:49.033Z,53.90
2018-02-14T01:36:17.420Z,54.70
2018-02-14T01:38:45.653Z,55.30
2018-02-14T01:41:14.173Z,55.20
2018-02-14T01:43:42.416Z,56.40
2018-02-14T01:46:10.841Z,56.40
2018-02-14T01:48:39.222Z,58.20
2018-02-14T01:51:07.477Z,55.90
2018-02-14T01:53:35.730Z,55.40
2018-02-14T01:56:04.371Z,54.90
2018-02-14T01:58:33.418Z,56.80
2018-02-14T02:01:01.718Z,56.80
2018-02-14T02:03:30.186Z,56.90
2018-02-14T02:05:58.489Z,56.60
2018-02-14T02:08:26.854Z,55.40
2018-02-14T02:10:55.389Z,57.30
2018-02-14T02:13:23.646Z,55.70
2018-02-14T02:15:52.666Z,55.50
2018-02-14T02:18:20.934Z,55.50
2018-02-14T02:20:49.195Z,55.40
2018-02-14T02:23:17.454Z,55.20
2018-02-14T02:25:45.789Z,55.00
2018-02-14T02:28:14.039Z,55.60
2018-02-14T02:30:42.285Z,54.80
2018-02-14T02:33:11.397Z,55.90
2018-02-14T02:35:40.497Z,55.80
2018-02-14T02:38:08.746Z,55.80
2018-02-14T02:40:42.648Z,55.70
2018-02-14T02:43:10.904Z,55.30
2018-02-14T02:45:39.165Z,55.40
2018-02-14T02:48:07.510Z,55.80
2018-02-14T02:50:35.766Z,55.70
2018-02-14T02:53:04.020Z,56.70
2018-02-14T02:55:32.295Z,56.30
2018-02-14T02:58:00.541Z,57.00
2018-02-14T03:00:28.799Z,57.10
2018-02-14T03:02:57.865Z,56.60
2018-02-14T03:05:26.117Z,55.80
2018-02-14T03:07:55.330Z,55.50
2018-02-14T03:10:24.086Z,55.60
2018-02-14T03:12:52.333Z,55.70
2018-02-14T03:15:20.624Z,55.80
2018-02-14T03:17:50.097Z,57.40
2018-02-14T03:20:19.117Z,60.10
2018-02-14T03:22:47.453Z,60.00
2018-02-14T03:25:15.853Z,59.40
2018-02-14T03:27:44.865Z,60.70
2018-02-14T03:30:24.710Z,58.90
2018-02-14T03:32:52.958Z,58.90
2018-02-14T03:35:21.222Z,58.60
2018-02-14T03:37:49.488Z,58.00
2018-02-14T03:40:17.737Z,57.60
2018-02-14T03:42:45.993Z,56.70
2018-02-14T03:45:14.267Z,56.70
2018-02-14T03:47:43.545Z,56.60
2018-02-14T03:50:11.798Z,56.50
2018-02-14T03:52:40.145Z,57.00
2018-02-14T03:55:08.409Z,57.80
2018-02-14T03:57:38.895Z,56.60
2018-02-14T04:00:07.462Z,56.70
2018-02-14T04:02:36.481Z,56.90
2018-02-14T04:05:04.734Z,57.10
2018-02-14T04:07:35.212Z,58.20
2018-02-14T04:10:04.233Z,58.70
2018-02-14T04:12:32.739Z,58.70
2018-02-14T04:15:01.086Z,58.30
2018-02-14T04:17:29.614Z,57.30
2018-02-14T04:19:57.864Z,58.30
2018-02-14T04:22:26.152Z,57.50
2018-02-14T04:24:54.390Z,58.10
2018-02-14T04:27:22.641Z,59.40
2018-02-14T04:29:50.916Z,58.10
2018-02-14T04:32:19.933Z,57.20
2018-02-14T04:34:48.193Z,57.10
2018-02-14T04:37:16.717Z,57.90
2018-02-14T04:39:44.977Z,57.80
2018-02-14T04:42:13.222Z,58.70
2018-02-14T04:44:41.489Z,58.90
2018-02-14T04:47:09.743Z,58.30
2018-02-14T04:49:37.994Z,59.00
2018-02-14T04:52:06.271Z,57.90
2018-02-14T04:54:34.521Z,58.20
2018-02-14T04:57:02.773Z,58.30
2018-02-14T04:59:31.105Z,59.40
2018-02-14T05:01:59.362Z,59.60
2018-02-14T05:04:27.937Z,59.20
2018-02-14T05:06:56.209Z,58.80
2018-02-14T05:09:24.505Z,58.40
2018-02-14T05:11:53.413Z,58.00
2018-02-14T05:14:21.698Z,59.60
2018-02-14T05:16:49.941Z,59.00
2018-02-14T05:19:18.198Z,58.30
2018-02-14T05:21:47.562Z,58.50
2018-02-14T05:24:15.829Z,58.50
2018-02-14T05:26:44.121Z,58.10
2018-02-14T05:29:12.393Z,59.60
2018-02-14T05:31:40.640Z,60.30
2018-02-14T05:34:08.905Z,59.00
2018-02-14T05:36:38.253Z,58.40
2018-02-14T05:39:06.525Z,59.50
2018-02-14T05:41:34.765Z,59.10
2018-02-14T05:44:03.269Z,58.50
2018-02-14T05:46:31.530Z,58.10
2018-02-14T05:48:59.777Z,58.20
2018-02-14T05:51:28.817Z,59.60
2018-02-14T05:53:57.070Z,59.60
2018-02-14T05:56:25.334Z,59.80
2018-02-14T05:58:53.605Z,62.00
2018-02-14T06:01:23.695Z,60.00
2018-02-14T06:03:51.954Z,59.90
2018-02-14T06:06:20.839Z,59.80
2018-02-14T06:08:49.094Z,61.00
2018-02-14T06:11:17.346Z,62.10
2018-02-14T06:13:45.621Z,60.30
2018-02-14T06:16:14.637Z,59.50
2018-02-14T06:18:42.893Z,59.40
2018-02-14T06:21:11.169Z,59.60
2018-02-14T06:23:39.417Z,61.30
2018-02-14T06:26:07.680Z,63.50
2018-02-14T06:28:36.408Z,61.60
2018-02-14T06:31:04.641Z,63.30
2018-02-14T06:33:34.139Z,62.60
2018-02-14T06:36:03.318Z,60.20
2018-02-14T06:38:33.661Z,65.60
2018-02-14T06:41:03.370Z,62.80
2018-02-14T06:43:32.058Z,61.80
2018-02-14T06:46:01.097Z,61.20
2018-02-14T06:48:29.739Z,60.20
2018-02-14T06:50:59.244Z,59.80
2018-02-14T06:53:28.442Z,60.60
2018-02-14T06:55:56.924Z,62.00
2018-02-14T06:58:27.399Z,61.10
2018-02-14T07:00:55.949Z,61.00
2018-02-14T07:03:24.236Z,60.10
2018-02-14T07:05:52.517Z,61.80
2018-02-14T07:08:21.041Z,61.20
2018-02-14T07:10:49.303Z,61.70
2018-02-14T07:13:18.006Z,64.70
2018-02-14T07:15:46.365Z,61.90
2018-02-14T07:18:14.842Z,62.80
2018-02-14T07:20:44.102Z,60.60
2018-02-14T07:23:12.953Z,60.50
2018-02-14T07:25:42.061Z,61.60
2018-02-14T07:28:10.643Z,60.70
2018-02-14T07:30:39.891Z,61.00
2018-02-14T07:33:08.709Z,60.00
2018-02-14T07:35:37.755Z,59.80
2018-02-14T07:38:06.741Z,59.40
2018-02-14T07:40:35.175Z,59.50
2018-02-14T07:43:04.540Z,60.00
2018-02-14T07:45:32.823Z,59.90
2018-02-14T07:48:01.093Z,60.20
2018-02-14T07:50:29.358Z,60.10
2018-02-14T07:52:57.618Z,61.20
2018-02-14T07:55:25.869Z,62.30
2018-02-14T07:57:55.147Z,62.00
2018-02-14T08:00:23.895Z,61.80
2018-02-14T08:02:52.156Z,61.70
2018-02-14T08:05:20.602Z,61.20
2018-02-14T08:07:48.933Z,60.80
2018-02-14T08:10:17.581Z,61.00
2018-02-14T08:12:46.538Z,62.00
2018-02-14T08:15:14.934Z,62.00
2018-02-14T08:17:43.179Z,62.20
2018-02-14T08:20:11.802Z,62.00
2018-02-14T08:22:40.054Z,61.60
2018-02-14T08:25:08.305Z,61.30
2018-02-14T08:27:37.517Z,63.50
2018-02-14T08:30:05.782Z,61.90
2018-02-14T08:32:34.030Z,61.00
2018-02-14T08:35:02.516Z,60.40
2018-02-14T08:37:30.754Z,60.50
2018-02-14T08:39:59.068Z,61.70
2018-02-14T08:42:27.862Z,61.30
2018-02-14T08:44:56.129Z,62.00
2018-02-14T08:47:24.370Z,61.50
2018-02-14T08:49:52.646Z,61.50
2018-02-14T08:52:20.914Z,61.00
2018-02-14T08:54:49.293Z,61.20
2018-02-14T08:57:17.701Z,60.70
2018-02-14T08:59:47.545Z,60.00
2018-02-14T09:02:16.285Z,59.90
2018-02-14T09:04:44.620Z,61.00
2018-02-14T09:07:13.273Z,61.20
2018-02-14T09:09:41.788Z,60.70
2018-02-14T09:12:10.899Z,60.60
2018-02-14T09:14:39.193Z,60.60
2018-02-14T09:17:08.393Z,60.80
2018-02-14T09:19:37.668Z,60.90
2018-02-14T09:22:06.295Z,60.80
2018-02-14T09:24:34.725Z,61.10
2018-02-14T09:27:03.362Z,60.00
2018-02-14T09:29:31.597Z,59.80
2018-02-14T09:32:00.797Z,59.40
2018-02-14T09:34:29.337Z,59.40
2018-02-14T09:36:58.387Z,59.10
2018-02-14T09:39:26.597Z,59.00
2018-02-14T09:41:55.950Z,59.10
2018-02-14T09:44:24.213Z,59.00
2018-02-14T09:46:52.449Z,58.60
2018-02-14T09:49:21.740Z,58.00
2018-02-14T09:51:49.981Z,57.90
2018-02-14T09:54:18.233Z,59.50
2018-02-14T09:56:47.385Z,62.10
2018-02-14T09:59:15.637Z,60.40
2018-02-14T10:01:43.893Z,57.00
2018-02-14T10:04:12.198Z,54.90
2018-02-14T10:06:40.453Z,59.70
2018-02-14T10:09:08.685Z,55.40
2018-02-14T10:11:37.957Z,52.90
2018-02-14T10:14:06.956Z,52.80
2018-02-14T10:16:35.263Z,49.80
2018-02-14T10:19:03.522Z,50.10
2018-02-14T10:21:31.771Z,51.80
2018-02-14T10:24:01.114Z,51.10
2018-02-14T10:26:30.164Z,48.50
2018-02-14T10:28:58.417Z,48.40
2018-02-14T10:31:26.870Z,50.50
2018-02-14T10:33:56.838Z,47.30
2018-02-14T10:36:27.283Z,47.20
2018-02-14T10:38:55.573Z,48.00
2018-02-14T10:41:23.837Z,47.40
2018-02-14T10:43:52.090Z,48.70
2018-02-14T10:46:20.522Z,46.60
2018-02-14T10:48:49.549Z,46.10
2018-02-14T10:51:17.862Z,46.10
2018-02-14T10:53:46.273Z,47.20
2018-02-14T10:56:15.739Z,44.90
2018-02-14T10:58:43.965Z,44.90
2018-02-14T11:01:18.943Z,46.80
2018-02-14T11:03:51.002Z,44.80
2018-02-14T11:06:19.254Z,46.00
2018-02-14T11:08:47.637Z,44.70
2018-02-14T11:11:15.889Z,42.50
2018-02-14T11:13:44.153Z,44.30
2018-02-14T11:16:13.322Z,42.10
2018-02-14T11:18:41.709Z,41.30
2018-02-14T11:21:09.966Z,42.20
2018-02-14T11:23:38.356Z,40.90
2018-02-14T11:26:06.593Z,43.00
2018-02-14T11:28:34.866Z,43.80
2018-02-14T11:31:03.154Z,39.90
2018-02-14T11:33:31.405Z,39.90
2018-02-14T11:36:00.814Z,41.50
2018-02-14T11:38:29.309Z,41.50
2018-02-14T11:40:57.561Z,40.90
2018-02-14T11:43:25.828Z,41.30
2018-02-14T11:45:54.690Z,37.30
2018-02-14T11:48:22.937Z,39.20
2018-02-14T11:50:51.185Z,41.00
2018-02-14T11:53:19.462Z,38.90
2018-02-14T11:55:47.722Z,38.30
2018-02-14T11:58:16.207Z,41.30
2018-02-14T12:00:44.873Z,43.10
2018-02-14T12:03:13.106Z,39.00
2018-02-14T12:05:41.358Z,40.20
2018-02-14T12:08:09.638Z,37.30
2018-02-14T12:10:39.465Z,37.80
2018-02-14T12:13:07.717Z,37.60
2018-02-14T12:15:36.333Z,36.80
2018-02-14T12:18:04.585Z,34.20
2018-02-14T12:20:33.605Z,35.90
2018-02-14T12:23:02.109Z,35.80
2018-02-14T12:25:30.366Z,38.10
2018-02-14T12:27:58.617Z,35.00
2018-02-14T12:30:27.067Z,35.20
2018-02-14T12:32:55.290Z,37.50
2018-02-14T12:35:23.658Z,36.10
2018-02-14T12:37:52.703Z,36.40
2018-02-14T12:40:20.957Z,36.30
2018-02-14T12:42:49.206Z,34.80
2018-02-14T12:45:17.778Z,34.90
2018-02-14T12:47:47.973Z,33.90
2018-02-14T12:50:16.226Z,33.80
2018-02-14T12:52:45.310Z,35.10
2018-02-14T12:55:14.407Z,32.10
2018-02-14T12:57:42.654Z,32.60
2018-02-14T13:00:10.925Z,31.20
2018-02-14T13:02:39.173Z,30.70
2018-02-14T13:05:07.417Z,33.50
2018-02-14T13:07:36.052Z,31.30
2018-02-14T13:10:04.293Z,32.50
2018-02-14T13:12:32.535Z,33.40
2018-02-14T13:15:00.810Z,31.20
2018-02-14T13:17:29.230Z,31.00
2018-02-14T13:19:57.688Z,27.20
2018-02-14T13:22:25.957Z,31.90
2018-02-14T13:24:54.210Z,31.10
2018-02-14T13:27:23.230Z,26.80
2018-02-14T13:29:51.558Z,26.70
2018-02-14T13:32:19.814Z,27.80
2018-02-14T13:34:48.073Z,34.20
2018-02-14T13:37:16.350Z,30.50
2018-02-14T13:39:44.597Z,32.00
2018-02-14T13:42:12.853Z,32.30
2018-02-14T13:44:41.893Z,28.50
2018-02-14T13:47:10.138Z,28.40
2018-02-14T13:49:39.154Z,26.10
2018-02-14T13:52:08.058Z,26.10
2018-02-14T13:54:36.306Z,27.20
2018-02-14T13:57:04.560Z,28.60
2018-02-14T13:59:32.825Z,32.40
2018-02-14T14:02:02.145Z,28.00
2018-02-14T14:04:31.150Z,30.10
2018-02-14T14:07:00.191Z,33.60
2018-02-14T14:09:28.442Z,33.40
2018-02-14T14:11:56.693Z,32.00
2018-02-14T14:14:25.436Z,26.40
2018-02-14T14:16:53.669Z,29.80
2018-02-14T14:19:22.310Z,29.00
2018-02-14T14:21:50.577Z,26.80
2018-02-14T14:24:18.829Z,26.00
2018-02-14T14:26:47.077Z,28.70
2018-02-14T14:29:15.355Z,30.90
2018-02-14T14:31:45.202Z,26.70
2018-02-14T14:34:13.456Z,26.60
2018-02-14T14:36:41.826Z,27.10
2018-02-14T14:39:10.082Z,28.00
2018-02-14T14:41:38.397Z,28.70
2018-02-14T14:44:06.674Z,31.80
2018-02-14T14:46:34.922Z,29.20
2018-02-14T14:49:03.954Z,24.80
2018-02-14T14:51:32.238Z,24.90
2018-02-14T14:54:00.481Z,27.60
2018-02-14T14:56:28.737Z,28.20
2018-02-14T14:58:57.681Z,26.70
2018-02-14T15:01:25.934Z,27.90
2018-02-14T15:03:54.188Z,29.10
2018-02-14T15:06:22.465Z,29.50
2018-02-14T15:08:52.792Z,29.20
2018-02-14T15:11:21.033Z,29.20
2018-02-14T15:13:49.314Z,27.10
2018-02-14T15:16:17.553Z,24.90
2018-02-14T15:18:45.797Z,25.50
2018-02-14T15:21:15.671Z,27.40
2018-02-14T15:23:43.905Z,27.20
2018-02-14T15:26:12.158Z,30.20
2018-02-14T15:28:41.202Z,28.80
2018-02-14T15:31:09.454Z,28.70
2018-02-14T15:33:37.875Z,29.70
2018-02-14T15:36:06.152Z,29.90
2018-02-14T15:38:34.401Z,28.80
2018-02-14T15:41:02.733Z,29.70
2018-02-14T15:43:31.284Z,30.60
2018-02-14T15:45:59.537Z,31.70
2018-02-14T15:48:28.873Z,31.70
2018-02-14T15:50:57.153Z,31.60
2018-02-14T15:53:25.439Z,32.90
2018-02-14T15:55:53.697Z,32.70
2018-02-14T15:58:22.034Z,31.90
2018-02-14T16:00:50.355Z,32.30
2018-02-14T16:03:18.589Z,32.90
2018-02-14T16:05:47.066Z,32.80
2018-02-14T16:08:16.133Z,33.30
2018-02-14T16:10:44.385Z,33.70
2018-02-14T16:13:12.656Z,33.60
2018-02-14T16:15:40.901Z,33.00
2018-02-14T16:18:09.158Z,33.50
2018-02-14T16:20:38.230Z,35.10
2018-02-14T16:23:06.997Z,35.10
2018-02-14T16:25:35.240Z,34.90
2018-02-14T16:28:03.729Z,34.80
2018-02-14T16:30:31.973Z,35.20
2018-02-14T16:33:00.985Z,35.40
2018-02-14T16:35:29.253Z,35.40
2018-02-14T16:37:58.296Z,35.70
2018-02-14T16:40:26.574Z,35.60
2018-02-14T16:42:54.830Z,35.20
2018-02-14T16:45:23.070Z,36.50
2018-02-14T16:47:52.085Z,36.70
2018-02-14T16:50:20.509Z,36.70
2018-02-14T16:52:48.778Z,36.80
2018-02-14T16:55:17.005Z,37.00
2018-02-14T16:57:45.273Z,37.20
2018-02-14T17:00:13.513Z,37.10
2018-02-14T17:02:41.757Z,37.30
2018-02-14T17:05:10.034Z,37.60
2018-02-14T17:07:38.277Z,37.50
2018-02-14T17:10:07.291Z,37.90
2018-02-14T17:12:36.003Z,37.80
2018-02-14T17:15:04.297Z,38.10
2018-02-14T17:17:32.559Z,38.10
2018-02-14T17:20:00.854Z,38.00
2018-02-14T17:22:29.090Z,37.60
2018-02-14T17:24:57.556Z,37.40
2018-02-14T17:27:26.702Z,37.70
2018-02-14T17:29:55.000Z,37.70
2018-02-14T17:32:23.285Z,37.90
2018-02-14T17:34:51.953Z,38.40
2018-02-14T17:37:20.198Z,39.10
2018-02-14T17:39:48.485Z,38.60
2018-02-14T17:42:16.757Z,38.90
2018-02-14T17:44:45.061Z,38.80
2018-02-14T17:47:13.393Z,38.40
2018-02-14T17:49:41.665Z,38.60
2018-02-14T17:52:09.995Z,38.90
2018-02-14T17:54:38.248Z,38.90
2018-02-14T17:57:07.141Z,38.90
2018-02-14T17:59:35.390Z,39.10
2018-02-14T18:02:03.642Z,39.50
2018-02-14T18:04:32.673Z,39.20
2018-02-14T18:07:01.078Z,39.20
2018-02-14T18:09:29.301Z,39.10
2018-02-14T18:11:58.349Z,39.60
2018-02-14T18:14:26.586Z,39.60
2018-02-14T18:16:54.842Z,39.50
2018-02-14T18:19:23.940Z,39.70
2018-02-14T18:21:52.184Z,39.70
2018-02-14T18:24:20.462Z,39.70
2018-02-14T18:26:49.526Z,39.70
2018-02-14T18:29:17.773Z,40.10
2018-02-14T18:31:46.026Z,40.20
2018-02-14T18:34:14.290Z,40.30
2018-02-14T18:36:42.540Z,40.40
2018-02-14T18:39:10.781Z,40.20
2018-02-14T18:41:39.247Z,40.40
2018-02-14T18:44:07.515Z,40.50
2018-02-14T18:46:35.778Z,41.00
2018-02-14T18:49:04.053Z,40.60
2018-02-14T18:51:32.297Z,40.40
2018-02-14T18:54:00.557Z,40.60
2018-02-14T18:56:28.825Z,40.70
2018-02-14T18:58:57.118Z,40.70
2018-02-14T19:01:25.381Z,41.10
2018-02-14T19:03:54.002Z,40.80
2018-02-14T19:06:22.245Z,41.30
2018-02-14T19:08:50.490Z,40.90
2018-02-14T19:11:19.917Z,41.00
2018-02-14T19:13:48.206Z,40.90
2018-02-14T19:16:16.449Z,41.10
2018-02-14T19:18:45.486Z,41.60
2018-02-14T19:21:13.834Z,41.50
2018-02-14T19:23:42.886Z,41.50
2018-02-14T19:26:11.342Z,41.40
2018-02-14T19:28:39.894Z,41.70
2018-02-14T19:31:08.910Z,41.90
2018-02-14T19:33:37.182Z,41.80
2018-02-14T19:36:05.429Z,41.80
2018-02-14T19:38:34.442Z,42.60
2018-02-14T19:41:02.718Z,42.50
2018-02-14T19:43:30.973Z,42.60
2018-02-14T19:45:59.222Z,43.10
2018-02-14T19:48:27.549Z,42.80
2018-02-14T19:50:56.573Z,43.70
2018-02-14T19:53:24.817Z,43.80
2018-02-14T19:55:53.134Z,43.60
2018-02-14T19:58:21.381Z,45.10
2018-02-14T20:00:49.625Z,43.50
2018-02-14T20:03:18.120Z,43.40
2018-02-14T20:05:47.134Z,43.30
2018-02-14T20:08:15.388Z,43.20
2018-02-14T20:10:44.604Z,43.40
2018-02-14T20:13:13.032Z,43.40
2018-02-14T20:15:41.273Z,43.30
2018-02-14T20:18:09.982Z,43.40
2018-02-14T20:20:38.229Z,43.30
2018-02-14T20:23:06.477Z,43.40
2018-02-14T20:25:34.769Z,43.30
2018-02-14T20:28:03.781Z,44.00
2018-02-14T20:30:32.270Z,43.90
2018-02-14T20:33:00.623Z,44.90
2018-02-14T20:35:29.629Z,45.00
2018-02-14T20:37:58.053Z,45.00
2018-02-14T20:40:26.305Z,44.50
2018-02-14T20:42:56.771Z,44.90
2018-02-14T20:45:25.022Z,44.40
2018-02-14T20:47:53.293Z,44.40
2018-02-14T20:50:21.567Z,44.90
2018-02-14T20:52:49.830Z,45.40
2018-02-14T20:55:18.153Z,44.80
2018-02-14T20:57:46.405Z,44.70
2018-02-14T21:00:14.690Z,44.90
2018-02-14T21:02:43.261Z,45.10
2018-02-14T21:05:11.522Z,44.80
2018-02-14T21:07:39.774Z,44.70
2018-02-14T21:10:08.051Z,44.90
2018-02-14T21:12:37.062Z,45.10
2018-02-14T21:15:05.305Z,45.00
2018-02-14T21:17:34.154Z,44.70
2018-02-14T21:20:02.406Z,44.70
2018-02-14T21:22:30.661Z,44.60
2018-02-14T21:24:58.935Z,44.70
2018-02-14T21:27:27.945Z,46.20
2018-02-14T21:29:56.962Z,45.60
2018-02-14T21:32:25.969Z,45.60
2018-02-14T21:34:55.253Z,45.00
2018-02-14T21:37:23.502Z,45.00
2018-02-14T21:39:51.885Z,45.50
2018-02-14T21:42:20.126Z,45.30
2018-02-14T21:44:48.377Z,45.20
2018-02-14T21:47:16.694Z,45.30
2018-02-14T21:49:44.930Z,45.30
2018-02-14T21:52:13.173Z,45.60
2018-02-14T21:54:41.446Z,45.60
2018-02-14T21:57:09.718Z,45.50
2018-02-14T21:59:38.725Z,46.90
2018-02-14T22:02:07.194Z,46.90
2018-02-14T22:04:35.480Z,46.80
2018-02-14T22:07:04.121Z,46.30
2018-02-14T22:09:32.397Z,46.50
2018-02-14T22:12:00.649Z,46.80
2018-02-14T22:14:28.902Z,47.30
2018-02-14T22:16:57.165Z,46.70
2018-02-14T22:19:25.422Z,46.90
2018-02-14T22:21:54.249Z,48.50
2018-02-14T22:24:22.584Z,47.80
2018-02-14T22:26:50.829Z,46.90
2018-02-14T22:29:19.100Z,46.80
2018-02-14T22:31:47.369Z,46.60
2018-02-14T22:34:15.858Z,46.50
2018-02-14T22:36:44.098Z,46.60
2018-02-14T22:39:14.135Z,47.60
2018-02-14T22:41:42.379Z,47.60
2018-02-14T22:44:11.394Z,47.20
2018-02-14T22:46:39.728Z,47.10
2018-02-14T22:49:08.106Z,47.30
2018-02-14T22:51:36.354Z,47.30
2018-02-14T22:54:04.626Z,47.60
2018-02-14T22:56:32.872Z,47.90
2018-02-14T22:59:01.109Z,47.50
2018-02-14T23:01:30.036Z,47.70
2018-02-14T23:03:59.050Z,47.10
2018-02-14T23:06:27.301Z,47.00
2018-02-14T23:08:55.629Z,47.30
2018-02-14T23:11:23.877Z,47.30
2018-02-14T23:13:52.117Z,47.20
2018-02-14T23:16:20.389Z,47.20
2018-02-14T23:18:48.657Z,47.70
2018-02-14T23:21:16.880Z,47.80
2018-02-14T23:23:45.154Z,47.90
2018-02-14T23:26:13.397Z,48.80
2018-02-14T23:28:41.641Z,48.00
2018-02-14T23:31:09.967Z,47.80
2018-02-14T23:33:38.973Z,48.20
2018-02-14T23:36:08.265Z,48.00
2018-02-14T23:38:38.205Z,48.20
2018-02-14T23:41:06.450Z,48.20
2018-02-14T23:43:34.697Z,48.20
2018-02-14T23:46:03.019Z,48.10
2018-02-14T23:48:32.038Z,48.20
2018-02-14T23:51:00.662Z,48.10
2018-02-14T23:53:29.322Z,47.90
2018-02-14T23:55:57.814Z,48.80
2018-02-14T23:58:26.046Z,49.00
